Accueil
METAR-TAF:

METAR-TAF

Aéroports :

Aéroport de Charleroi-Bruxelles-Sud

Charleroi, Belgique

latitude: 50-28N, longitude: 004-27E, altitude: 187 m

Observation

Le bulletin a été fait il y a 37 minutes, à 05:50 UTC
Vent 2 kt de direction variable
Température 22°C
Humidité 73%
Pression 1015 hPa
Visibilité 10 km ou plus
pas de nuages en-dessous de 1500 mètres et pas de cumulonimbus.

METAR: EBCI 110550Z VRB02KT CAVOK 22/17 Q1015 NOSIG

Heure: 08:27 (06:27 UTC)

Prévision

Le bulletin a été fait il y a 1 heure et 27 minutes, à 05:00 UTC
Prévision valable du 11 à 06 UTC au 12 à 12 UTC
Vent 3 kt de direction variable
Visibilité 10 km ou plus
pas de nuages en-dessous de 1500 mètres et pas de cumulonimbus.
Probabilité 30% :
Temporairement
du 11 à 12 UTC au 11 à 21 UTC
Vent 18 kt de direction variable avec des rafales jusqu'à 30 kt
Visibilité: 3000 m
orage, pluie

TAF: EBCI 110500Z 1106/1212 VRB03KT CAVOK PROB30 TEMPO 1112/1121 VRB18G30KT 3000 TSRA

Observations et prévisions météorologiques de plus de 4000 aéroports (messages METAR et TAF).

Les stations disponibles sont représentées par des disques jaunes et rouges sur la carte.

Passer la souris dessus pour voir le nom de la station.

Cliquer dessus pour voir les observations et prévisions météorologiques.

Pour changer de carte: cliquez sur les boutons verts avec une croix noire pour zoomer, sur le bouton vert avec un tiret pour effectuer un zoom arrière, ou sur les flèches vertes pour les cartes adjacentes.


METAR-TAF: